Wed 28th February 15:30 pm
   Condicions actuals
Parcialment ennuvolat



Pressió
1014.9 (hPa) - 29.97 (inHG)
Visibilitat:

9.7 (km) - 6.0 (miles)
Base de Núvols

1829 (Mts) - 6000 (Feets)
   Temperatura
16  °C
Temperatura
2  °C
P.ros.
39  %
 Humitat
   Velocitat del Vent
23  km/h
12  kts
14  mph
6.3  m/s
   Vent Direcció
N
45°
E
90°
135°
S
180°
225°
O
270°
315°
 110°

Est S
Est
   Airport Data
LELL
Sabadell Airfield
Metar :LELL 281430Z 11012KT 080V150 9999 FEW060 16/02 Q1015
Wed 28th February 15:30 pm
   Raw Metar Info
Raw METAR is the most common format in the world for the transmission of observational weather data. It is highly standardized through the International Civil Aviation Organization (ICAO), which allows it to be understood throughout most of the world.
   API Info
Data Provided by
https://www.checkwx.com/weather/LELL

Aviation Weather providing METAR, TAF, AIRMET, SIGMET and OUTLOOK Weather Reports
   © Info
CSS/SVG/PHP scripts were developed by weather34.com for use in the weather34 template © 2015-2024

Guide Info provided by Metar-Wikipedia